Time;durP1;ratioP1;P1;durP2;ratioP2;P2;SDS_P1;SDS_P2;PMS_P1;PMS_P2;Temp;Humidity;BMP_temperature;BMP_pressure;BME280_temperature;BME280_humidity;BME280_pressure;Samples;Min_cycle;Max_cycle;Signal;HPM_P1;HPM_P2
2023/03/23 00:18:02;;;;;;;45.87;29.13;;;6.40;99.90;;;;;;5530169;24;20723;-81
2023/03/23 00:43:39;;;;;;;54.07;32.90;;;6.90;99.90;;;;;;5618154;24;20512;-81
2023/03/23 01:14:04;;;;;;;46.03;30.97;;;7.30;99.90;;;;;;5732784;24;20184;-83
2023/03/23 02:34:52;;;;;;;43.93;28.13;;;7.00;99.90;;;;;;5579432;24;20428;-79
2023/03/23 03:00:29;;;;;;;43.40;28.70;;;7.40;99.90;;;;;;5660512;24;20161;-79
2023/03/23 03:31:10;;;;;;;35.67;24.20;;;8.50;99.90;;;;;;5881978;23;20335;-82
2023/03/23 03:56:05;;;;;;;35.53;23.40;;;8.00;99.90;;;;;;5654089;24;20498;-83
2023/03/23 04:52:06;;;;;;;36.67;25.00;;;6.20;99.90;;;;;;5675242;24;20343;-81
2023/03/23 05:22:27;;;;;;;37.43;26.33;;;6.60;99.90;;;;;;5604642;24;20380;-82
2023/03/23 06:08:00;;;;;;;30.70;20.63;;;9.40;99.90;;;;;;5480712;25;20196;-84
2023/03/23 07:03:36;;;;;;;22.73;16.80;;;11.50;99.90;;;;;;5558213;24;20504;-82
2023/03/23 07:29:12;;;;;;;19.77;15.17;;;12.60;95.20;;;;;;5835299;23;20420;-80
2023/03/23 07:59:46;;;;;;;15.53;12.13;;;13.90;90.10;;;;;;5683736;24;20275;-80
2023/03/23 08:30:20;;;;;;;14.03;10.57;;;15.30;85.20;;;;;;5518274;25;20568;-80
2023/03/23 08:50:30;;;;;;;12.23;8.80;;;16.30;80.50;;;;;;5703513;24;20380;-79
2023/03/23 09:25:25;;;;;;;11.23;8.00;;;16.70;77.70;;;;;;5492586;25;20651;-79
2023/03/23 10:16:08;;;;;;;7.80;6.70;;;17.40;73.00;;;;;;5568491;24;21153;-81
2023/03/23 11:11:57;;;;;;;5.07;4.00;;;19.10;54.40;;;;;;5529574;24;20924;-81
2023/03/23 11:32:47;;;;;;;5.22;3.70;;;19.30;49.50;;;;;;5599156;24;20184;-81
2023/03/23 11:57:45;;;;;;;3.10;2.75;;;19.40;49.30;;;;;;5601311;24;20784;-82
2023/03/23 12:23:19;;;;;;;3.80;3.50;;;19.40;49.70;;;;;;5722794;24;20474;-83
2023/03/23 12:43:37;;;;;;;3.92;3.22;;;19.70;49.70;;;;;;5581585;24;20237;-82
2023/03/23 13:13:47;;;;;;;6.32;4.15;;;19.50;49.80;;;;;;5527672;25;20645;-84
2023/03/23 13:49:33;;;;;;;3.13;2.80;;;18.80;49.90;;;;;;5667667;24;20186;-85
2023/03/23 14:29:32;;;;;;;5.53;2.87;;;18.60;50.40;;;;;;5722600;24;20455;-80
2023/03/23 14:50:31;;;;;;;5.13;3.93;;;17.80;63.80;;;;;;5722454;24;20196;-82
2023/03/23 15:10:25;;;;;;;9.30;4.83;;;17.20;70.70;;;;;;5719476;24;20196;-85
2023/03/23 15:35:59;;;;;;;8.60;4.97;;;16.60;76.30;;;;;;5736344;24;20177;-82
2023/03/23 15:56:21;;;;;;;7.20;4.67;;;16.30;76.70;;;;;;5712914;24;20736;-84
2023/03/23 16:26:35;;;;;;;8.13;5.13;;;16.00;79.20;;;;;;5661758;24;20843;-80
2023/03/23 17:01:35;;;;;;;5.93;4.70;;;14.90;84.00;;;;;;5738130;24;20347;-82
2023/03/23 17:17:13;;;;;;;5.27;4.77;;;14.60;85.90;;;;;;5716825;24;20969;-83
2023/03/23 17:42:46;;;;;;;8.20;5.10;;;14.20;87.90;;;;;;5786977;24;20596;-79
2023/03/23 18:53:35;;;;;;;9.70;7.70;;;14.30;87.40;;;;;;5684086;24;20179;-79
2023/03/23 19:29:12;;;;;;;6.20;4.47;;;14.10;86.00;;;;;;5618509;25;20385;-81
2023/03/23 19:59:22;;;;;;;3.70;3.00;;;14.00;83.60;;;;;;5857018;24;20290;-81
2023/03/23 20:35:11;;;;;;;3.50;2.40;;;14.20;85.70;;;;;;5886973;23;20222;-82
2023/03/23 20:39:40;;;;;;;3.30;2.57;;;14.10;86.30;;;;;;5763061;24;20781;-80
2023/03/23 21:45:49;;;;;;;4.47;3.93;;;13.20;94.50;;;;;;5673814;24;20322;-82
2023/03/23 22:15:48;;;;;;;7.33;5.10;;;12.50;96.30;;;;;;5683094;24;20310;-79
2023/03/23 22:41:16;;;;;;;10.13;6.60;;;11.90;99.90;;;;;;5578239;24;20507;-79
2023/03/23 23:07:02;;;;;;;10.23;7.40;;;12.40;97.80;;;;;;5676483;24;20231;-79
